Time;durP1;ratioP1;P1;durP2;ratioP2;P2;SDS_P1;SDS_P2;PMS_P1;PMS_P2;Temp;Humidity;BMP_temperature;BMP_pressure;BME280_temperature;BME280_humidity;BME280_pressure;Samples;Min_cycle;Max_cycle;Signal;HPM_P1;HPM_P2
2023/03/04 00:02:17;;;;;;;;;;;;;;;;;;;;;
2023/03/04 00:05:03;;;;;;;39.90;27.23;;;;;;;4.95;77.63;95941.44;5997019;23;20179;-90
2023/03/04 00:11:44;;;;;;;40.30;28.97;;;;;;;4.87;77.62;95949.75;6125485;23;20179;-90
2023/03/04 00:28:45;;;;;;;38.13;27.23;;;;;;;4.69;77.51;95949.59;6072231;23;20179;-90
2023/03/04 01:31:56;;;;;;;35.10;25.40;;;;;;;4.15;79.08;95932.13;6019915;23;20194;-90
2023/03/04 01:38:20;;;;;;;36.97;25.77;;;;;;;4.09;79.18;95930.91;6022183;23;20185;-90
2023/03/04 01:44:16;;;;;;;34.87;25.20;;;;;;;4.08;79.65;95919.09;5895783;24;20187;-89
2023/03/04 02:01:49;;;;;;;32.97;23.97;;;;;;;3.96;80.40;95904.84;5844375;24;20216;-90
2023/03/04 02:16:52;;;;;;;30.80;23.37;;;;;;;4.04;79.42;95894.03;5946993;23;20259;-89
2023/03/04 02:30:39;;;;;;;;;;;;;;;;;;;;;
2023/03/04 02:41:07;;;;;;;30.30;23.37;;;;;;;3.87;79.71;95875.03;5936408;24;20227;-90
2023/03/04 02:47:34;;;;;;;30.03;22.23;;;;;;;3.89;79.78;95890.19;5834490;24;20190;-89
2023/03/04 02:50:56;;;;;;;32.20;24.77;;;;;;;3.91;79.80;95884.03;5856496;24;20203;-89
2023/03/04 03:28:44;;;;;;;34.80;25.47;;;;;;;3.87;80.13;95886.97;6119040;23;20203;-90
2023/03/04 03:35:19;;;;;;;33.93;25.37;;;;;;;3.80;80.07;95886.69;5971943;23;20235;-90
2023/03/04 03:42:02;;;;;;;;;;;;;;;;;;;;;
2023/03/04 03:59:15;;;;;;;36.03;25.70;;;;;;;3.53;80.22;95881.31;6086914;23;20687;-90
2023/03/04 04:01:45;;;;;;;34.33;24.60;;;;;;;3.52;80.02;95882.25;5972848;24;20702;-90
2023/03/04 04:17:48;;;;;;;35.40;26.13;;;;;;;3.52;79.83;95877.97;6149985;23;20198;-90
2023/03/04 04:26:33;;;;;;;34.47;25.50;;;;;;;3.54;79.16;95883.72;6149967;23;20201;-90
2023/03/04 04:29:43;;;;;;;35.57;25.00;;;;;;;3.49;79.55;95880.75;6141694;23;20171;-90
2023/03/04 04:49:15;;;;;;;;;;;;;;;;;;;;;
2023/03/04 04:51:59;;;;;;;34.80;23.93;;;;;;;3.41;79.48;95873.75;5973849;24;20174;-89
2023/03/04 05:02:01;;;;;;;29.30;21.87;;;;;;;3.46;78.53;95881.03;5888339;24;20269;-90
2023/03/04 05:04:32;;;;;;;30.63;23.10;;;;;;;3.41;79.19;95883.94;5935356;23;20182;-90
2023/03/04 05:07:44;;;;;;;;;;;;;;;;;;;;;
2023/03/04 05:16:20;;;;;;;;;;;;;;;;;;;;;
2023/03/04 05:19:18;;;;;;;33.17;24.13;;;;;;;3.40;79.21;95874.69;6150498;23;20182;-90
2023/03/04 05:22:56;;;;;;;;;;;;;;;;;;;;;
2023/03/04 05:38:45;;;;;;;;;;;;;;;;;;;;;
2023/03/04 05:45:19;;;;;;;29.97;23.10;;;;;;;3.32;79.14;95882.13;6027222;23;20636;-90
2023/03/04 05:57:26;;;;;;;32.17;24.00;;;;;;;3.27;79.30;95886.00;5945420;24;20584;-88
2023/03/04 06:03:01;;;;;;;33.47;23.53;;;;;;;3.36;78.85;95893.69;6072111;23;20256;-86
2023/03/04 06:05:29;;;;;;;31.77;24.07;;;;;;;3.40;78.75;95895.06;6088555;23;20195;-87
2023/03/04 06:08:07;;;;;;;29.87;22.77;;;;;;;3.40;78.64;95899.34;6165367;23;20201;-85
2023/03/04 06:11:06;;;;;;;30.43;22.80;;;;;;;3.41;78.06;95904.31;6164747;23;20158;-86
2023/03/04 06:13:33;;;;;;;29.97;22.90;;;;;;;3.43;78.01;95901.63;6164225;23;20243;-86
2023/03/04 06:16:21;;;;;;;29.83;23.33;;;;;;;3.49;78.08;95911.28;6163699;23;20226;-86
2023/03/04 06:18:49;;;;;;;32.63;23.63;;;;;;;3.43;78.27;95901.63;6165183;23;20194;-86
2023/03/04 06:21:39;;;;;;;33.17;24.53;;;;;;;3.44;77.72;95910.88;6164717;23;20277;-86
2023/03/04 06:24:06;;;;;;;29.27;22.43;;;;;;;3.50;77.63;95910.38;6164534;23;20174;-87
2023/03/04 06:33:45;;;;;;;29.93;21.60;;;;;;;3.56;77.69;95920.06;6033800;23;20177;-89
2023/03/04 06:36:21;;;;;;;29.87;22.43;;;;;;;3.68;76.83;95924.13;6149077;23;20194;-88
2023/03/04 06:38:49;;;;;;;33.23;23.30;;;;;;;3.81;76.54;95926.50;6166172;23;20183;-89
2023/03/04 06:41:47;;;;;;;29.80;22.93;;;;;;;3.91;75.85;95924.78;6164831;23;20191;-89
2023/03/04 06:44:44;;;;;;;31.80;22.77;;;;;;;4.05;75.14;95929.53;6071868;23;20196;-89
2023/03/04 06:47:11;;;;;;;32.00;22.43;;;;;;;4.15;74.40;95930.41;6044441;23;20253;-88
2023/03/04 06:49:57;;;;;;;30.83;22.37;;;;;;;4.28;74.12;95931.91;6149764;23;20175;-88
2023/03/04 06:52:30;;;;;;;31.70;23.83;;;;;;;4.38;73.85;95936.13;6167654;23;20190;-88
2023/03/04 06:55:16;;;;;;;27.53;21.57;;;;;;;4.88;77.03;95930.97;6161408;23;20178;-86
2023/03/04 06:57:43;;;;;;;28.97;22.80;;;;;;;4.97;73.68;95927.63;6166103;23;20187;-86
2023/03/04 07:00:11;;;;;;;31.93;23.40;;;;;;;5.05;72.23;95927.75;6165506;23;20175;-88
2023/03/04 07:02:37;;;;;;;29.63;22.80;;;;;;;5.13;71.60;95938.09;6165844;23;20195;-89
2023/03/04 07:05:19;;;;;;;29.93;23.27;;;;;;;5.26;71.66;95929.38;6165167;23;20178;-87
2023/03/04 07:07:47;;;;;;;29.20;22.57;;;;;;;5.40;71.34;95934.03;6164979;23;20408;-87
2023/03/04 07:10:16;;;;;;;30.00;22.40;;;;;;;5.41;70.69;95940.75;6164327;23;20179;-88
2023/03/04 07:12:42;;;;;;;30.33;23.87;;;;;;;5.59;70.44;95930.66;6164148;23;20206;-88
2023/03/04 07:15:16;;;;;;;28.23;22.80;;;;;;;5.78;69.78;95935.72;6165486;23;20175;-87
2023/03/04 07:17:42;;;;;;;29.77;23.13;;;;;;;5.90;68.75;95932.13;6166466;23;20583;-87
2023/03/04 07:20:11;;;;;;;28.07;22.67;;;;;;;5.91;68.32;95930.38;6165577;23;20233;-87
2023/03/04 07:22:45;;;;;;;31.70;23.97;;;;;;;5.79;68.18;95940.69;6162802;23;20224;-87
2023/03/04 07:25:20;;;;;;;31.00;24.33;;;;;;;5.87;68.25;95934.91;6165734;23;20199;-87
2023/03/04 07:27:53;;;;;;;28.60;23.67;;;;;;;6.03;67.87;95937.72;6166533;23;20159;-87
2023/03/04 07:30:20;;;;;;;30.77;24.67;;;;;;;6.15;67.78;95943.47;6166114;23;20178;-87
2023/03/04 07:32:59;;;;;;;31.03;23.83;;;;;;;6.26;66.80;95942.47;6165851;23;20182;-88
2023/03/04 07:35:29;;;;;;;32.23;24.43;;;;;;;6.31;66.67;95947.97;6166690;23;20233;-86
2023/03/04 07:37:56;;;;;;;32.63;25.00;;;;;;;6.45;66.05;95950.88;6165032;23;20167;-87
2023/03/04 07:40:29;;;;;;;32.87;24.37;;;;;;;6.71;65.52;95953.56;6164604;23;20202;-87
2023/03/04 07:43:14;;;;;;;32.10;24.47;;;;;;;6.93;64.85;95958.25;6165327;23;20199;-87
2023/03/04 07:45:43;;;;;;;30.43;24.60;;;;;;;6.85;64.58;95963.31;6165424;23;20199;-87
2023/03/04 07:48:13;;;;;;;30.90;24.20;;;;;;;6.83;64.33;95965.22;6165462;23;20198;-87
2023/03/04 07:50:44;;;;;;;32.73;24.87;;;;;;;6.91;64.84;95967.06;6163076;23;20181;-87
2023/03/04 07:53:12;;;;;;;32.47;25.50;;;;;;;6.99;64.95;95968.88;6162448;23;20170;-87
2023/03/04 07:55:39;;;;;;;35.37;25.43;;;;;;;7.06;65.02;95969.94;6163260;23;20247;-88
2023/03/04 07:58:05;;;;;;;33.77;25.83;;;;;;;7.13;64.85;95973.50;6163229;23;20202;-87
2023/03/04 08:00:36;;;;;;;36.03;26.37;;;;;;;7.07;63.77;95982.59;6163172;23;20214;-88
2023/03/04 08:03:09;;;;;;;32.77;25.57;;;;;;;7.14;64.03;95983.59;6164583;23;20186;-86
2023/03/04 08:05:39;;;;;;;36.23;26.73;;;;;;;7.11;63.30;95977.97;6164640;23;20211;-89
2023/03/04 08:08:07;;;;;;;33.07;25.73;;;;;;;7.24;63.59;95979.22;6164970;23;20217;-87
2023/03/04 08:10:34;;;;;;;31.27;25.20;;;;;;;7.19;62.36;95970.38;6163893;23;20226;-86
2023/03/04 08:13:08;;;;;;;35.67;26.50;;;;;;;7.31;62.20;95976.91;6162815;23;20182;-87
2023/03/04 08:15:42;;;;;;;29.87;24.50;;;;;;;7.59;62.52;95980.16;6164387;23;20194;-87
2023/03/04 08:18:14;;;;;;;31.60;25.73;;;;;;;7.82;61.58;95990.75;6164742;23;20159;-87
2023/03/04 08:20:53;;;;;;;;;;;;;;;;;;;;;
2023/03/04 08:23:24;;;;;;;33.30;25.53;;;;;;;7.86;60.94;95977.50;6164639;23;20206;-87
2023/03/04 08:25:56;;;;;;;31.47;23.87;;;;;;;7.86;59.80;95974.94;6163826;23;20206;-88
2023/03/04 08:28:36;;;;;;;;;;;;;;;;;;;;;
2023/03/04 08:31:03;;;;;;;28.67;23.57;;;;;;;8.23;59.58;95972.09;6162794;23;20177;-87
2023/03/04 08:33:31;;;;;;;30.37;24.07;;;;;;;8.29;58.98;95979.16;6163587;23;20167;-87
2023/03/04 08:35:58;;;;;;;29.87;24.33;;;;;;;8.34;58.26;95976.19;6163844;23;20218;-87
2023/03/04 08:38:30;;;;;;;29.13;24.80;;;;;;;8.50;57.59;95978.03;6163413;23;20183;-87
2023/03/04 08:40:58;;;;;;;28.13;24.00;;;;;;;8.77;57.98;95967.56;6163348;23;20175;-89
2023/03/04 08:43:25;;;;;;;30.13;23.33;;;;;;;8.94;57.01;95973.53;6163715;23;20306;-87
2023/03/04 08:45:54;;;;;;;29.57;23.33;;;;;;;9.06;56.05;95979.97;6162622;23;20958;-88
2023/03/04 08:48:23;;;;;;;29.37;23.40;;;;;;;9.11;55.33;95975.19;6165411;23;20185;-86
2023/03/04 08:50:53;;;;;;;29.87;23.13;;;;;;;9.25;55.42;95974.56;6162397;23;20171;-86
2023/03/04 08:53:20;;;;;;;28.17;23.97;;;;;;;9.40;55.09;95973.94;6162234;23;20179;-86
2023/03/04 08:55:51;;;;;;;27.73;22.63;;;;;;;9.43;54.89;95974.41;6162299;23;20250;-87
2023/03/04 08:58:18;;;;;;;28.77;23.53;;;;;;;9.55;53.74;95977.47;6163244;23;20190;-88
2023/03/04 09:00:48;;;;;;;29.90;24.60;;;;;;;9.47;53.84;95974.91;6162858;23;20214;-87
2023/03/04 09:03:27;;;;;;;27.37;23.43;;;;;;;9.77;53.65;95974.28;6163841;23;20519;-87
2023/03/04 09:06:07;;;;;;;26.43;22.00;;;;;;;9.93;53.32;95965.72;6163703;23;20222;-87
2023/03/04 09:08:42;;;;;;;28.73;23.83;;;;;;;10.17;52.58;95964.91;6163689;23;20162;-89
2023/03/04 09:11:09;;;;;;;26.67;22.17;;;;;;;10.30;52.00;95963.44;6161833;23;20163;-87
2023/03/04 09:13:40;;;;;;;28.97;22.87;;;;;;;10.60;52.27;95958.50;6160310;23;20171;-87
2023/03/04 09:16:12;;;;;;;28.57;22.37;;;;;;;10.74;51.45;95955.25;6164854;23;20547;-87
2023/03/04 09:18:44;;;;;;;27.33;23.43;;;;;;;10.85;50.96;95956.63;6166630;23;20185;-88
2023/03/04 09:21:11;;;;;;;26.70;22.43;;;;;;;10.84;50.69;95958.41;6162074;23;20591;-87
2023/03/04 09:23:41;;;;;;;28.07;23.00;;;;;;;10.77;50.48;95952.34;6164650;23;20198;-87
2023/03/04 09:26:35;;;;;;;25.23;22.23;;;;;;;10.91;49.83;95954.19;6166246;23;20195;-86
2023/03/04 09:29:03;;;;;;;27.77;21.83;;;;;;;10.75;49.97;95948.31;6168079;23;20392;-88
2023/03/04 09:31:32;;;;;;;25.43;21.47;;;;;;;10.87;50.16;95959.84;6168030;23;20177;-87
2023/03/04 09:34:14;;;;;;;26.03;22.77;;;;;;;10.86;50.23;95955.66;6167359;23;20203;-87
2023/03/04 09:36:40;;;;;;;26.97;22.37;;;;;;;10.99;50.07;95958.47;6166551;23;20201;-88
2023/03/04 09:39:07;;;;;;;24.57;21.73;;;;;;;11.07;49.26;95955.84;6166389;23;20198;-87
2023/03/04 09:41:42;;;;;;;26.10;21.80;;;;;;;11.02;49.27;95950.41;6165267;23;20179;-87
2023/03/04 09:44:19;;;;;;;26.90;22.40;;;;;;;11.10;49.44;95960.69;6165616;23;20163;-87
2023/03/04 09:46:48;;;;;;;25.97;21.60;;;;;;;11.14;49.14;95958.56;6166111;23;20195;-87
2023/03/04 09:49:18;;;;;;;27.47;22.73;;;;;;;11.08;49.17;95957.47;6167001;23;20182;-87
2023/03/04 09:51:54;;;;;;;25.87;22.20;;;;;;;11.08;48.90;95957.47;6167211;23;20171;-87
2023/03/04 09:54:33;;;;;;;25.43;21.80;;;;;;;11.00;49.69;95952.34;6168344;23;20182;-87
2023/03/04 10:00:18;;;;;;;25.80;20.70;;;;;;;11.19;49.11;95951.91;6165224;23;20649;-86
2023/03/04 10:03:03;;;;;;;29.00;21.77;;;;;;;11.22;49.25;95937.88;6166216;23;20563;-87
2023/03/04 10:05:33;;;;;;;28.67;22.60;;;;;;;11.33;49.25;95948.63;6166513;23;20195;-86
2023/03/04 10:08:40;;;;;;;27.33;22.43;;;;;;;11.41;48.22;95940.81;6166716;23;20155;-87
2023/03/04 10:11:18;;;;;;;27.77;20.83;;;;;;;11.54;47.80;95937.66;6130572;23;20237;-86
2023/03/04 10:13:55;;;;;;;23.63;19.83;;;;;;;11.54;47.77;95926.53;6165655;23;20626;-87
2023/03/04 10:16:25;;;;;;;24.77;19.70;;;;;;;11.72;47.41;95927.03;6167649;23;20269;-87
2023/03/04 10:18:58;;;;;;;23.23;19.27;;;;;;;11.91;47.30;95930.91;6168529;23;20163;-87
2023/03/04 10:21:34;;;;;;;22.40;18.13;;;;;;;11.87;46.04;95921.91;6166199;23;20175;-86
2023/03/04 10:24:06;;;;;;;24.83;18.47;;;;;;;11.89;46.25;95918.19;6168713;23;20198;-87
2023/03/04 10:26:45;;;;;;;26.40;20.10;;;;;;;11.59;46.64;95911.34;6168137;23;20237;-87
2023/03/04 10:29:20;;;;;;;22.67;18.33;;;;;;;11.49;46.51;95921.09;6168911;23;20160;-87
2023/03/04 10:31:55;;;;;;;21.23;17.80;;;;;;;11.34;45.72;95913.31;6169072;23;20163;-88
2023/03/04 10:34:24;;;;;;;21.27;17.50;;;;;;;11.50;46.65;95923.50;6169249;23;20181;-88
2023/03/04 10:37:12;;;;;;;20.37;18.00;;;;;;;11.50;46.59;95917.53;6167829;23;20243;-87
2023/03/04 10:39:41;;;;;;;22.17;18.27;;;;;;;11.40;46.62;95916.00;6168230;23;20190;-87
2023/03/04 10:42:25;;;;;;;23.73;18.77;;;;;;;11.38;46.17;95917.13;6166904;23;20442;-88
2023/03/04 10:45:23;;;;;;;21.47;18.10;;;;;;;11.31;46.42;95913.66;6168325;23;20151;-86
2023/03/04 10:47:57;;;;;;;23.40;18.23;;;;;;;11.33;46.41;95917.69;6168496;23;20174;-87
2023/03/04 10:50:28;;;;;;;21.40;18.13;;;;;;;11.49;46.42;95903.06;6167447;23;20226;-87
2023/03/04 10:53:00;;;;;;;21.53;17.60;;;;;;;11.41;46.34;95901.31;6164524;23;20199;-86
2023/03/04 10:55:49;;;;;;;23.10;18.07;;;;;;;11.38;46.33;95897.31;6166224;23;20268;-86
2023/03/04 10:58:35;;;;;;;22.17;17.37;;;;;;;11.23;47.20;95900.81;6166283;23;20179;-86
2023/03/04 11:01:24;;;;;;;20.07;17.83;;;;;;;11.00;47.21;95909.34;6165805;23;20198;-86
2023/03/04 11:06:52;;;;;;;22.67;18.77;;;;;;;10.98;47.95;95903.56;6161370;23;20199;-87
2023/03/04 11:09:23;;;;;;;21.70;18.60;;;;;;;11.11;47.59;95895.28;6164296;23;20202;-89
2023/03/04 11:11:51;;;;;;;20.70;17.80;;;;;;;11.25;47.10;95897.09;6165180;23;20183;-89
2023/03/04 11:14:29;;;;;;;20.73;17.57;;;;;;;11.33;46.59;95899.63;6163687;23;20201;-87
2023/03/04 11:16:58;;;;;;;21.57;17.23;;;;;;;11.24;46.81;95889.53;6163958;23;20198;-87
2023/03/04 11:19:29;;;;;;;21.23;17.90;;;;;;;11.33;46.93;95897.06;6165632;23;20179;-88
2023/03/04 11:21:59;;;;;;;22.37;18.50;;;;;;;11.34;46.55;95897.84;6166264;23;20166;-87
2023/03/04 11:24:50;;;;;;;23.23;18.97;;;;;;;11.43;46.62;95897.59;6165060;23;20170;-87
2023/03/04 11:27:22;;;;;;;23.30;19.10;;;;;;;11.42;46.58;95882.31;6163563;23;20704;-87
2023/03/04 11:29:55;;;;;;;21.70;17.80;;;;;;;11.46;47.06;95893.06;6163371;23;20167;-86
2023/03/04 11:32:27;;;;;;;21.93;18.07;;;;;;;11.53;46.96;95887.06;6163588;23;20182;-86
2023/03/04 11:34:58;;;;;;;22.20;19.13;;;;;;;11.39;46.83;95882.66;6165023;23;20189;-86
2023/03/04 11:37:31;;;;;;;23.63;19.37;;;;;;;11.45;47.18;95881.16;6163583;23;20163;-87
2023/03/04 11:40:03;;;;;;;22.37;18.50;;;;;;;11.25;47.38;95886.00;6164312;23;20173;-86
2023/03/04 11:42:46;;;;;;;24.33;19.03;;;;;;;11.18;47.44;95885.88;6163401;23;20274;-87
2023/03/04 11:45:14;;;;;;;24.07;19.63;;;;;;;10.90;47.28;95889.94;6163565;23;20164;-87
2023/03/04 11:47:53;;;;;;;24.10;19.10;;;;;;;11.00;47.33;95888.75;6164376;23;20872;-87
2023/03/04 11:50:31;;;;;;;23.23;19.33;;;;;;;11.13;47.00;95883.03;6162375;23;20197;-87
2023/03/04 11:53:16;;;;;;;23.23;19.70;;;;;;;11.07;46.93;95881.94;6162344;23;20186;-87
2023/03/04 11:55:56;;;;;;;25.90;20.00;;;;;;;11.03;47.26;95882.44;6162795;23;20285;-87
2023/03/04 11:59:19;;;;;;;23.40;19.77;;;;;;;11.12;47.64;95868.53;6163263;23;20196;-86
2023/03/04 12:02:05;;;;;;;24.83;19.20;;;;;;;11.24;47.36;95868.91;6160961;23;20231;-86
2023/03/04 12:04:45;;;;;;;22.40;19.17;;;;;;;11.46;47.08;95868.09;6162616;23;20186;-86
2023/03/04 12:07:43;;;;;;;23.27;18.90;;;;;;;11.70;47.22;95867.06;6163087;23;20199;-87
2023/03/04 12:10:20;;;;;;;22.73;18.67;;;;;;;11.82;46.59;95859.72;6163322;23;20177;-88
2023/03/04 12:13:04;;;;;;;23.97;19.37;;;;;;;11.82;46.40;95854.56;6164411;23;20613;-86
2023/03/04 12:15:43;;;;;;;23.57;19.03;;;;;;;12.10;46.29;95858.94;6165550;23;20195;-88
2023/03/04 12:18:29;;;;;;;21.87;18.90;;;;;;;12.15;45.72;95842.91;6163346;23;20576;-86
2023/03/04 12:21:15;;;;;;;21.33;17.73;;;;;;;12.21;46.13;95843.97;6165247;23;20159;-87
2023/03/04 12:23:58;;;;;;;22.27;18.90;;;;;;;12.14;45.51;95841.28;6166124;23;20185;-87
2023/03/04 12:26:28;;;;;;;22.47;19.03;;;;;;;12.24;45.10;95843.59;6166401;23;20222;-86
2023/03/04 12:29:06;;;;;;;23.50;18.63;;;;;;;11.97;45.06;95837.28;6165473;23;20166;-87
2023/03/04 12:31:38;;;;;;;22.50;17.87;;;;;;;11.76;45.78;95840.59;6164655;23;20245;-87
2023/03/04 12:34:30;;;;;;;23.13;17.90;;;;;;;11.75;46.96;95826.84;6166253;23;20178;-86
2023/03/04 12:37:18;;;;;;;18.93;16.77;;;;;;;11.69;46.61;95825.00;6165051;23;20246;-86
2023/03/04 12:39:58;;;;;;;21.40;17.43;;;;;;;11.92;45.58;95822.38;6166301;23;20159;-87
2023/03/04 12:42:37;;;;;;;20.93;17.60;;;;;;;11.99;45.73;95812.13;6165075;23;20245;-88
2023/03/04 12:45:16;;;;;;;20.40;16.43;;;;;;;11.92;45.49;95817.22;6165544;23;20165;-87
2023/03/04 12:47:55;;;;;;;19.73;16.27;;;;;;;11.81;46.56;95817.66;6166328;23;20181;-87
2023/03/04 12:50:40;;;;;;;19.23;15.47;;;;;;;11.88;46.96;95821.13;6163718;23;20170;-87
2023/03/04 12:53:19;;;;;;;17.43;14.97;;;;;;;11.77;47.59;95819.78;6165180;23;20635;-86
2023/03/04 12:55:47;;;;;;;18.77;15.13;;;;;;;11.46;47.85;95818.31;6164047;23;20567;-86
2023/03/04 12:58:20;;;;;;;17.13;14.43;;;;;;;11.51;47.67;95816.00;6162086;23;20183;-86
2023/03/04 13:00:55;;;;;;;20.03;15.97;;;;;;;11.24;48.19;95807.88;6163730;23;20179;-86
2023/03/04 13:03:31;;;;;;;17.97;14.00;;;;;;;11.17;48.21;95811.31;6162939;23;20221;-88
2023/03/04 13:06:08;;;;;;;18.37;14.97;;;;;;;11.29;48.60;95808.16;6163524;23;20195;-86
2023/03/04 13:09:00;;;;;;;17.50;14.87;;;;;;;11.17;48.57;95799.22;6163017;23;20171;-87
2023/03/04 13:12:02;;;;;;;19.33;15.53;;;;;;;11.04;48.90;95804.97;6160434;23;20151;-88
2023/03/04 13:14:37;;;;;;;18.37;15.37;;;;;;;10.90;49.50;95797.22;6161067;23;20155;-86
2023/03/04 13:17:39;;;;;;;18.47;15.63;;;;;;;11.05;49.04;95788.53;6161423;23;20210;-86
2023/03/04 13:20:19;;;;;;;20.67;15.60;;;;;;;11.10;48.84;95793.19;6162463;23;20174;-86
2023/03/04 13:22:51;;;;;;;18.50;15.20;;;;;;;11.11;49.01;95797.34;6161870;23;20159;-86
2023/03/04 13:25:42;;;;;;;19.83;15.63;;;;;;;11.30;48.66;95799.44;6162928;23;20155;-87
2023/03/04 13:28:19;;;;;;;18.33;15.60;;;;;;;11.34;48.45;95794.75;6161212;23;20194;-87
2023/03/04 13:31:15;;;;;;;18.37;15.60;;;;;;;11.22;48.08;95778.88;6162126;23;20159;-86
2023/03/04 13:33:55;;;;;;;16.17;14.47;;;;;;;11.44;48.57;95787.53;6159409;23;20159;-86
2023/03/04 13:36:55;;;;;;;16.80;14.37;;;;;;;11.38;47.88;95783.09;6163139;23;20745;-87
2023/03/04 13:39:29;;;;;;;19.43;15.30;;;;;;;11.30;49.23;95789.13;6163185;23;20240;-88
2023/03/04 13:41:58;;;;;;;21.13;15.30;;;;;;;11.42;49.13;95786.91;6161546;23;20226;-88
2023/03/04 13:44:47;;;;;;;18.03;14.70;;;;;;;11.47;48.19;95783.81;6163256;23;20202;-86
2023/03/04 13:47:18;;;;;;;17.83;14.87;;;;;;;11.47;48.50;95778.66;6161206;23;20841;-86
2023/03/04 13:49:45;;;;;;;22.87;14.47;;;;;;;11.26;48.51;95776.75;6161912;23;20179;-87
2023/03/04 13:52:38;;;;;;;17.00;14.57;;;;;;;11.31;48.75;95777.84;6161447;23;20186;-88
2023/03/04 13:55:38;;;;;;;16.60;14.30;;;;;;;11.37;48.20;95782.28;6161371;23;20166;-87
2023/03/04 13:58:23;;;;;;;20.80;15.03;;;;;;;11.52;47.98;95779.72;6161363;23;20186;-88
2023/03/04 14:00:54;;;;;;;17.60;14.67;;;;;;;11.51;48.48;95779.91;6161231;23;20170;-85
2023/03/04 14:06:21;;;;;;;16.27;14.10;;;;;;;11.53;48.00;95773.59;6138657;23;20278;-87
2023/03/04 14:12:07;;;;;;;17.03;14.27;;;;;;;11.17;48.42;95767.50;6153176;23;20234;-87
2023/03/04 14:17:47;;;;;;;15.40;13.23;;;;;;;10.88;49.01;95760.50;6157236;23;20209;-87
2023/03/04 14:20:25;;;;;;;16.17;14.37;;;;;;;10.64;49.22;95762.31;6158479;23;20171;-89
2023/03/04 14:23:09;;;;;;;;;;;;;;;;;;;;;
2023/03/04 14:25:38;;;;;;;16.07;13.40;;;;;;;10.56;49.32;95759.00;6159316;23;20197;-87
2023/03/04 14:28:15;;;;;;;18.77;14.37;;;;;;;10.56;49.26;95761.56;6158131;23;20230;-86
2023/03/04 14:33:48;;;;;;;16.93;13.60;;;;;;;10.54;49.26;95756.59;6144991;23;20249;-86
2023/03/04 14:36:22;;;;;;;17.40;13.77;;;;;;;10.61;48.89;95760.06;6166238;23;20202;-86
2023/03/04 14:39:06;;;;;;;14.77;13.17;;;;;;;10.44;49.01;95758.59;6165668;23;20163;-85
2023/03/04 14:41:40;;;;;;;14.93;12.70;;;;;;;10.52;49.11;95758.53;6164599;23;20163;-86
2023/03/04 14:44:28;;;;;;;17.30;12.30;;;;;;;10.34;48.95;95766.53;6162924;23;20185;-85
2023/03/04 14:47:37;;;;;;;14.57;12.87;;;;;;;9.99;50.04;95756.75;6161654;23;20191;-85
2023/03/04 14:50:18;;;;;;;16.23;13.60;;;;;;;9.83;50.01;95767.06;6133307;23;20179;-88
2023/03/04 14:52:51;;;;;;;15.43;12.47;;;;;;;9.78;50.43;95765.03;6159456;23;20167;-86
2023/03/04 14:55:22;;;;;;;14.53;12.33;;;;;;;9.96;50.05;95757.06;6156852;23;20156;-87
2023/03/04 14:58:06;;;;;;;14.60;11.60;;;;;;;10.09;49.39;95764.22;6156626;23;20183;-87
2023/03/04 15:00:40;;;;;;;15.57;12.47;;;;;;;9.96;48.91;95764.78;6158218;23;20219;-87
2023/03/04 15:03:24;;;;;;;16.43;12.27;;;;;;;10.01;49.29;95759.91;6161482;23;20169;-86
2023/03/04 15:05:57;;;;;;;13.90;11.90;;;;;;;9.99;49.20;95756.75;6164019;23;20205;-85
2023/03/04 15:08:27;;;;;;;14.80;12.43;;;;;;;9.84;49.26;95759.19;6163530;23;20163;-88
2023/03/04 15:11:07;;;;;;;19.10;14.87;;;;;;;9.49;49.69;95755.31;6165248;23;20183;-89
2023/03/04 15:13:43;;;;;;;26.33;21.07;;;;;;;9.49;49.79;95746.81;6166286;23;20158;-85
2023/03/04 15:16:18;;;;;;;22.27;17.57;;;;;;;9.53;49.98;95755.78;6165294;23;20273;-86
2023/03/04 15:19:08;;;;;;;17.37;13.30;;;;;;;9.28;50.53;95748.13;6165388;23;20201;-86
2023/03/04 15:21:36;;;;;;;15.93;12.67;;;;;;;9.26;50.62;95749.25;6163015;23;20171;-87
2023/03/04 15:24:04;;;;;;;14.23;12.23;;;;;;;9.10;50.74;95749.31;6165555;23;20210;-85
2023/03/04 15:26:33;;;;;;;14.60;12.03;;;;;;;9.00;50.62;95750.28;6163839;23;20199;-85
2023/03/04 15:29:13;;;;;;;13.90;11.83;;;;;;;9.15;51.12;95758.13;6163800;23;20249;-87
2023/03/04 15:31:42;;;;;;;14.67;12.10;;;;;;;9.09;50.27;95745.94;6162889;23;20162;-86
2023/03/04 15:34:42;;;;;;;14.37;11.83;;;;;;;9.02;50.63;95757.84;6160626;23;20179;-87
2023/03/04 15:43:01;;;;;;;14.80;11.40;;;;;;;8.88;51.03;95754.13;6069895;23;20204;-86
2023/03/04 15:45:51;;;;;;;14.77;11.73;;;;;;;8.57;50.92;95758.31;6068578;23;20208;-87
2023/03/04 15:52:20;;;;;;;14.70;12.50;;;;;;;8.42;51.72;95762.47;6146425;23;20183;-87
2023/03/04 15:55:02;;;;;;;;;;;;;;;;;;;;;
2023/03/04 15:57:33;;;;;;;15.73;12.73;;;;;;;7.93;52.26;95765.69;6160775;23;20545;-87
2023/03/04 16:00:08;;;;;;;14.20;11.87;;;;;;;7.81;53.05;95772.06;6159674;23;20626;-88
2023/03/04 16:02:34;;;;;;;15.47;12.30;;;;;;;7.73;52.84;95764.34;6161152;23;20175;-87
2023/03/04 16:17:00;;;;;;;21.70;16.20;;;;;;;7.44;53.99;95776.72;6162012;23;20198;-88
2023/03/04 16:22:39;;;;;;;17.87;12.57;;;;;;;7.41;53.73;95779.56;6157444;23;20186;-87
2023/03/04 16:29:13;;;;;;;15.77;12.63;;;;;;;6.93;54.24;95780.84;5976899;24;20261;-88
2023/03/04 16:31:55;;;;;;;16.03;11.97;;;;;;;6.76;54.55;95784.25;6125802;23;20179;-87
2023/03/04 16:34:28;;;;;;;16.37;11.57;;;;;;;6.71;54.71;95779.59;6159231;23;20225;-88
2023/03/04 16:37:33;;;;;;;16.13;11.80;;;;;;;6.74;54.58;95784.38;6165522;23;20195;-89
2023/03/04 16:46:57;;;;;;;16.80;12.07;;;;;;;6.69;54.98;95785.81;6164242;23;20277;-88
2023/03/04 16:50:23;;;;;;;;;;;;;;;;;;;;;
2023/03/04 16:53:15;;;;;;;15.77;11.33;;;;;;;6.25;55.15;95788.28;6153331;23;20255;-89
2023/03/04 16:59:39;;;;;;;14.43;11.10;;;;;;;6.09;56.28;95804.25;6078684;23;20266;-90
2023/03/04 17:02:56;;;;;;;;;;;;;;;;;;;;;
2023/03/04 17:06:14;;;;;;;14.20;11.93;;;;;;;6.05;55.94;95817.44;6066878;23;20192;-87
2023/03/04 17:08:52;;;;;;;43.13;31.43;;;;;;;6.09;55.40;95806.81;6089562;23;20265;-88
2023/03/04 17:15:03;;;;;;;;;;;;;;;;;;;;;
2023/03/04 17:17:36;;;;;;;13.60;11.40;;;;;;;5.95;55.63;95829.50;6150884;23;20229;-87
2023/03/04 17:27:20;;;;;;;16.03;12.30;;;;;;;5.47;56.53;95841.44;6154240;23;20230;-87
2023/03/04 17:30:16;;;;;;;16.30;12.43;;;;;;;5.25;57.21;95854.53;6167338;23;20170;-89
2023/03/04 17:36:23;;;;;;;16.73;12.70;;;;;;;5.16;57.07;95850.25;6156933;23;20198;-88
2023/03/04 17:39:47;;;;;;;;;;;;;;;;;;;;;
2023/03/04 17:42:29;;;;;;;15.40;12.60;;;;;;;5.07;57.67;95867.19;6074266;23;20160;-88
2023/03/04 17:45:27;;;;;;;16.63;12.37;;;;;;;5.04;57.58;95858.97;6067093;23;20205;-86
2023/03/04 17:51:18;;;;;;;15.77;12.37;;;;;;;5.24;57.47;95872.53;6158099;23;20198;-88
2023/03/04 17:54:11;;;;;;;16.53;13.00;;;;;;;5.24;57.08;95868.22;6157820;23;20190;-87
2023/03/04 18:06:21;;;;;;;17.70;13.13;;;;;;;5.31;57.81;95878.72;6025513;23;20213;-89
2023/03/04 18:09:53;;;;;;;;;;;;;;;;;;;;;
2023/03/04 18:12:39;;;;;;;17.57;14.37;;;;;;;5.12;57.57;95877.78;6136128;23;20177;-90
2023/03/04 18:18:50;;;;;;;16.03;13.03;;;;;;;5.20;57.98;95888.13;6132075;23;20183;-87
2023/03/04 18:24:40;;;;;;;33.43;24.00;;;;;;;4.99;57.83;95895.13;6116837;23;20243;-90
2023/03/04 18:27:38;;;;;;;22.47;16.33;;;;;;;4.78;58.38;95891.91;6135828;23;20214;-89
2023/03/04 18:33:49;;;;;;;;;;;;;;;;;;;;;
2023/03/04 18:43:04;;;;;;;;;;;;;;;;;;;;;
2023/03/04 18:45:52;;;;;;;16.27;13.10;;;;;;;4.64;57.93;95905.81;6129589;23;20227;-89
2023/03/04 18:55:14;;;;;;;;;;;;;;;;;;;;;
2023/03/04 18:58:06;;;;;;;17.10;13.07;;;;;;;4.62;57.22;95906.91;6127695;23;20183;-87
2023/03/04 19:04:12;;;;;;;17.13;13.37;;;;;;;4.60;57.48;95914.69;6124324;23;20182;-87
2023/03/04 19:10:14;;;;;;;20.23;15.63;;;;;;;4.75;57.73;95920.22;6119357;23;20179;-89
2023/03/04 19:12:51;;;;;;;21.93;17.57;;;;;;;4.71;57.90;95913.75;6123671;23;20219;-87
2023/03/04 19:15:47;;;;;;;20.00;15.53;;;;;;;4.80;57.78;95915.53;6125647;23;20175;-87
2023/03/04 19:18:55;;;;;;;19.50;15.07;;;;;;;4.68;57.53;95919.13;6126380;23;20643;-87